Time;durP1;ratioP1;P1;durP2;ratioP2;P2;SDS_P1;SDS_P2;PMS_P1;PMS_P2;Temp;Humidity;BMP_temperature;BMP_pressure;BME280_temperature;BME280_humidity;BME280_pressure;Samples;Min_cycle;Max_cycle;Signal;HPM_P1;HPM_P2
2022/07/06 00:00:43;;;;;;;3.22;0.90;;;14.70;99.90;;;;;;5047608;28;20037;-74
2022/07/06 00:03:09;;;;;;;5.70;1.50;;;14.70;99.90;;;;;;5046928;28;20128;-75
2022/07/06 00:05:34;;;;;;;8.05;1.15;;;14.70;99.90;;;;;;5046804;28;20037;-75
2022/07/06 00:08:00;;;;;;;7.07;1.67;;;14.70;99.90;;;;;;5049113;28;20096;-75
2022/07/06 00:10:25;;;;;;;7.72;1.50;;;14.70;99.90;;;;;;5047512;28;20567;-75
2022/07/06 00:12:51;;;;;;;1.60;0.70;;;14.60;99.90;;;;;;5045505;28;20677;-75
2022/07/06 00:15:17;;;;;;;3.45;1.33;;;14.60;99.90;;;;;;5049294;28;20049;-74
2022/07/06 00:17:42;;;;;;;3.28;0.95;;;14.60;99.90;;;;;;5047924;28;20041;-75
2022/07/06 00:20:08;;;;;;;7.97;1.10;;;14.60;99.90;;;;;;5046235;28;20131;-76
2022/07/06 00:22:34;;;;;;;4.63;1.05;;;14.50;99.90;;;;;;5049094;28;20037;-75
2022/07/06 00:25:00;;;;;;;6.10;1.42;;;14.50;99.90;;;;;;5045932;28;20049;-75
2022/07/06 00:27:25;;;;;;;3.58;1.08;;;14.50;99.90;;;;;;5043496;28;20468;-75
2022/07/06 00:29:51;;;;;;;4.20;1.75;;;14.50;99.90;;;;;;5047623;28;20095;-75
2022/07/06 00:32:16;;;;;;;4.85;0.90;;;14.50;99.90;;;;;;5048225;28;20072;-75
2022/07/06 00:34:42;;;;;;;5.10;1.02;;;14.60;99.90;;;;;;5047690;28;20438;-75
2022/07/06 00:37:08;;;;;;;6.15;1.17;;;14.50;99.90;;;;;;5044644;28;20107;-75
2022/07/06 00:39:34;;;;;;;3.38;1.08;;;14.40;99.90;;;;;;5048206;28;20412;-74
2022/07/06 00:42:00;;;;;;;3.25;0.80;;;14.50;99.90;;;;;;5047543;28;20458;-74
2022/07/06 00:44:25;;;;;;;5.10;0.77;;;14.40;99.90;;;;;;5048607;28;20044;-75
2022/07/06 00:46:51;;;;;;;2.33;0.90;;;14.50;99.90;;;;;;5043461;28;20067;-74
2022/07/06 00:52:02;;;;;;;6.47;1.50;;;14.50;99.90;;;;;;5045810;28;20128;-74
2022/07/06 00:54:31;;;;;;;4.10;0.93;;;14.40;99.90;;;;;;5046619;28;20092;-75
2022/07/06 00:56:57;;;;;;;3.58;0.88;;;14.40;99.90;;;;;;5027250;28;20045;-75
2022/07/06 00:59:24;;;;;;;2.55;0.93;;;14.50;99.90;;;;;;5046487;28;20480;-76
2022/07/06 01:01:50;;;;;;;7.47;1.77;;;14.40;99.90;;;;;;5044532;28;20037;-76
2022/07/06 01:04:16;;;;;;;3.45;0.90;;;14.40;99.90;;;;;;5046471;28;20751;-76
2022/07/06 01:06:41;;;;;;;2.65;1.40;;;14.40;99.90;;;;;;5027810;28;20076;-76
2022/07/06 01:09:07;;;;;;;4.55;1.10;;;14.40;99.90;;;;;;5046768;28;20049;-74
2022/07/06 01:11:33;;;;;;;3.65;1.50;;;14.50;99.90;;;;;;5044887;28;20041;-73
2022/07/06 01:14:00;;;;;;;2.75;1.45;;;14.40;99.90;;;;;;5044306;28;20114;-74
2022/07/06 01:16:26;;;;;;;5.43;2.30;;;14.40;99.90;;;;;;5045677;28;20044;-74
2022/07/06 01:18:51;;;;;;;3.53;0.80;;;14.30;99.90;;;;;;5046230;28;20044;-75
2022/07/06 01:21:17;;;;;;;2.60;0.90;;;14.30;99.90;;;;;;5048319;28;20037;-75
2022/07/06 01:23:46;;;;;;;5.18;1.63;;;14.40;99.90;;;;;;5045930;28;20128;-74
2022/07/06 01:26:19;;;;;;;3.80;0.77;;;14.40;99.90;;;;;;5041520;28;20566;-74
2022/07/06 01:28:45;;;;;;;9.13;1.42;;;14.50;99.90;;;;;;5042467;28;20099;-75
2022/07/06 01:31:29;;;;;;;3.95;1.02;;;14.40;99.90;;;;;;5044700;28;20045;-74
2022/07/06 01:33:56;;;;;;;10.70;1.77;;;14.40;99.90;;;;;;5045131;28;20037;-74
2022/07/06 01:36:22;;;;;;;2.63;0.93;;;14.40;99.90;;;;;;5029114;28;20463;-74
2022/07/06 01:38:58;;;;;;;3.25;1.00;;;14.40;99.90;;;;;;5047107;28;20029;-75
2022/07/06 01:41:23;;;;;;;4.93;1.40;;;14.40;99.90;;;;;;5042639;28;20037;-74
2022/07/06 01:43:49;;;;;;;2.55;0.60;;;14.40;99.90;;;;;;5060889;22;20109;-76
2022/07/06 01:46:15;;;;;;;6.13;1.45;;;14.40;99.90;;;;;;5031937;28;20057;-75
2022/07/06 01:48:41;;;;;;;3.58;1.25;;;14.40;99.90;;;;;;5034513;28;20175;-75
2022/07/06 01:51:08;;;;;;;4.78;1.70;;;14.40;99.90;;;;;;5027227;28;20493;-75
2022/07/06 01:53:34;;;;;;;5.15;0.82;;;14.30;99.90;;;;;;5039625;28;20106;-75
2022/07/06 01:56:00;;;;;;;3.80;1.05;;;14.20;99.90;;;;;;5043855;28;20049;-75
2022/07/06 01:58:25;;;;;;;8.18;1.88;;;14.20;99.90;;;;;;5043219;28;20056;-75
2022/07/06 02:00:51;;;;;;;1.08;0.65;;;14.10;99.90;;;;;;5045755;28;20040;-74
2022/07/06 02:03:17;;;;;;;3.42;0.77;;;14.10;99.90;;;;;;5045996;28;20124;-76
2022/07/06 02:05:42;;;;;;;2.20;0.75;;;14.10;99.90;;;;;;5046626;28;20047;-76
2022/07/06 02:08:08;;;;;;;6.32;0.80;;;14.10;99.90;;;;;;5044777;28;20688;-76
2022/07/06 02:10:33;;;;;;;5.93;1.27;;;14.20;99.90;;;;;;5046706;28;20033;-75
2022/07/06 02:12:59;;;;;;;3.42;1.02;;;14.10;99.90;;;;;;5043634;28;20048;-76
2022/07/06 02:15:24;;;;;;;3.95;1.48;;;14.10;99.90;;;;;;5046991;28;20450;-75
2022/07/06 02:17:50;;;;;;;5.93;0.70;;;14.00;99.90;;;;;;5045724;28;20040;-75
2022/07/06 02:20:16;;;;;;;10.98;2.47;;;14.10;99.90;;;;;;5043583;28;20087;-76
2022/07/06 02:22:41;;;;;;;5.95;0.73;;;14.10;99.90;;;;;;5046268;28;20037;-75
2022/07/06 02:25:07;;;;;;;10.32;1.15;;;14.10;99.90;;;;;;5045778;28;20399;-75
2022/07/06 02:27:33;;;;;;;9.57;0.65;;;14.20;99.90;;;;;;5044812;28;20076;-75
2022/07/06 02:29:59;;;;;;;7.30;1.15;;;14.10;99.90;;;;;;5027877;28;20135;-75
2022/07/06 02:32:25;;;;;;;5.00;0.95;;;14.20;99.90;;;;;;5045127;28;20406;-75
2022/07/06 02:34:50;;;;;;;4.30;1.23;;;14.20;99.90;;;;;;5043744;28;20037;-75
2022/07/06 02:37:16;;;;;;;8.52;0.93;;;14.10;99.90;;;;;;5045534;28;20041;-76
2022/07/06 02:39:42;;;;;;;7.15;1.50;;;14.10;99.90;;;;;;5045266;28;20049;-76
2022/07/06 02:42:08;;;;;;;6.05;0.55;;;14.20;99.90;;;;;;5027827;28;20372;-76
2022/07/06 02:44:33;;;;;;;2.65;0.70;;;14.10;99.90;;;;;;5044254;28;20329;-76
2022/07/06 02:46:59;;;;;;;2.53;0.60;;;14.10;99.90;;;;;;5045739;28;20117;-77
2022/07/06 02:49:24;;;;;;;4.50;0.52;;;14.10;99.90;;;;;;5042551;28;20104;-73
2022/07/06 02:51:50;;;;;;;6.93;1.10;;;14.20;99.90;;;;;;5043062;28;20122;-74
2022/07/06 02:54:16;;;;;;;3.95;0.57;;;14.10;99.90;;;;;;5043958;28;20049;-74
2022/07/06 02:56:41;;;;;;;4.63;0.93;;;14.10;99.90;;;;;;5042645;28;20091;-76
2022/07/06 02:59:07;;;;;;;6.85;0.50;;;14.10;99.90;;;;;;5043855;28;20041;-77
2022/07/06 03:01:32;;;;;;;3.75;0.93;;;14.10;99.90;;;;;;5028192;28;20376;-76
2022/07/06 03:03:58;;;;;;;5.60;1.05;;;14.10;99.90;;;;;;5042282;28;20116;-76
2022/07/06 03:06:24;;;;;;;4.13;0.70;;;14.10;99.90;;;;;;5043525;28;20041;-74
2022/07/06 03:08:49;;;;;;;6.45;1.33;;;14.10;99.90;;;;;;5043596;28;20495;-77
2022/07/06 03:11:15;;;;;;;10.20;1.45;;;14.00;99.90;;;;;;5044750;28;20053;-75
2022/07/06 03:13:41;;;;;;;3.92;0.40;;;14.00;99.90;;;;;;5043958;28;20128;-75
2022/07/06 03:16:06;;;;;;;17.42;1.42;;;14.00;99.90;;;;;;5042295;28;20051;-75
2022/07/06 03:18:32;;;;;;;3.63;1.25;;;14.00;99.90;;;;;;5027188;28;20041;-75
2022/07/06 03:20:57;;;;;;;5.40;1.13;;;13.90;99.90;;;;;;5043564;28;20041;-75
2022/07/06 03:23:23;;;;;;;4.45;0.50;;;13.80;99.90;;;;;;5045327;28;20041;-76
2022/07/06 03:25:49;;;;;;;3.40;0.40;;;13.80;99.90;;;;;;5043893;28;20040;-76
2022/07/06 03:28:14;;;;;;;9.65;1.02;;;13.80;99.90;;;;;;5044205;28;20128;-77
2022/07/06 03:30:40;;;;;;;6.53;1.30;;;13.80;99.90;;;;;;5042034;28;20450;-74
2022/07/06 03:33:05;;;;;;;9.50;2.47;;;13.70;99.90;;;;;;5044244;28;20041;-74
2022/07/06 03:35:31;;;;;;;4.70;0.52;;;13.60;99.90;;;;;;5043290;28;20071;-77
2022/07/06 03:37:57;;;;;;;8.40;1.85;;;13.70;99.90;;;;;;5044318;28;20486;-75
2022/07/06 03:40:22;;;;;;;3.88;1.02;;;13.60;99.90;;;;;;5043061;28;20083;-75
2022/07/06 03:42:48;;;;;;;4.88;0.50;;;13.50;99.90;;;;;;5042132;28;20064;-76
2022/07/06 03:45:14;;;;;;;4.22;1.05;;;13.50;99.90;;;;;;5041773;28;20053;-76
2022/07/06 03:47:40;;;;;;;2.30;0.63;;;13.50;99.90;;;;;;5045024;28;20128;-74
2022/07/06 03:50:06;;;;;;;6.00;1.58;;;13.50;99.90;;;;;;5044282;28;20487;-76
2022/07/06 03:52:34;;;;;;;5.53;0.80;;;13.50;99.90;;;;;;5045030;28;20043;-75
2022/07/06 03:54:59;;;;;;;5.70;0.55;;;13.60;99.90;;;;;;5042358;28;20088;-76
2022/07/06 03:57:25;;;;;;;3.47;0.55;;;13.60;99.90;;;;;;5042402;28;20452;-76
2022/07/06 03:59:51;;;;;;;2.58;0.50;;;13.60;99.90;;;;;;5042892;28;20120;-76
2022/07/06 04:02:17;;;;;;;5.28;0.63;;;13.60;99.90;;;;;;5027773;28;20124;-76
2022/07/06 04:04:42;;;;;;;4.32;0.50;;;13.60;99.90;;;;;;5040813;28;20045;-75
2022/07/06 04:07:08;;;;;;;2.92;0.90;;;13.60;99.90;;;;;;5043804;28;20949;-76
2022/07/06 04:09:33;;;;;;;3.65;0.90;;;13.50;99.90;;;;;;5055657;28;20048;-75
2022/07/06 04:11:59;;;;;;;4.60;0.80;;;13.50;99.90;;;;;;5046819;28;20036;-76
2022/07/06 04:14:27;;;;;;;4.30;0.88;;;13.50;99.90;;;;;;5047301;28;20096;-75
2022/07/06 04:16:52;;;;;;;3.40;1.02;;;13.50;99.90;;;;;;5042869;28;20037;-75
2022/07/06 04:19:18;;;;;;;3.50;1.67;;;13.40;99.90;;;;;;5047403;28;20045;-75
2022/07/06 04:21:43;;;;;;;6.05;0.85;;;13.40;99.90;;;;;;5048790;28;20041;-76
2022/07/06 04:24:09;;;;;;;3.67;0.90;;;13.50;99.90;;;;;;5047997;28;20037;-76
2022/07/06 04:26:35;;;;;;;5.60;1.27;;;13.50;99.90;;;;;;5045917;28;20079;-77
2022/07/06 04:29:00;;;;;;;6.82;0.90;;;13.50;99.90;;;;;;5046834;28;20037;-75
2022/07/06 04:31:26;;;;;;;6.15;1.48;;;13.50;99.90;;;;;;5047673;28;20475;-76
2022/07/06 04:33:52;;;;;;;6.95;1.02;;;13.50;99.90;;;;;;5045643;28;20518;-74
2022/07/06 04:36:17;;;;;;;7.03;1.77;;;13.50;99.90;;;;;;5028418;28;20049;-76
2022/07/06 04:38:43;;;;;;;3.33;0.50;;;13.50;99.90;;;;;;5047133;28;20077;-76
2022/07/06 04:41:09;;;;;;;10.13;2.42;;;13.50;99.90;;;;;;5048007;28;20060;-76
2022/07/06 04:43:34;;;;;;;5.28;0.65;;;13.60;99.90;;;;;;5045990;28;20032;-76
2022/07/06 04:46:01;;;;;;;5.43;0.95;;;13.60;99.90;;;;;;5047518;28;20080;-77
2022/07/06 04:48:26;;;;;;;4.68;0.80;;;13.60;99.90;;;;;;5047981;28;20051;-76
2022/07/06 04:50:53;;;;;;;4.55;0.60;;;13.60;99.90;;;;;;5048393;28;20415;-79
2022/07/06 04:53:19;;;;;;;3.38;0.52;;;13.70;99.90;;;;;;5048713;28;20056;-77
2022/07/06 04:55:45;;;;;;;5.45;0.73;;;13.70;99.90;;;;;;5047141;28;20037;-75
2022/07/06 04:58:10;;;;;;;2.45;0.63;;;13.70;99.90;;;;;;5043592;28;20404;-75
2022/07/06 05:00:36;;;;;;;5.65;0.50;;;13.80;99.90;;;;;;5047388;28;20041;-74
2022/07/06 05:03:01;;;;;;;4.10;0.40;;;13.70;99.90;;;;;;5046653;28;20052;-78
2022/07/06 05:05:27;;;;;;;7.93;2.47;;;13.70;99.90;;;;;;5045064;28;20727;-75
2022/07/06 05:07:52;;;;;;;4.05;0.77;;;13.70;99.90;;;;;;5047671;28;20047;-78
2022/07/06 05:10:18;;;;;;;4.30;0.73;;;13.70;99.90;;;;;;5041827;28;20123;-77
2022/07/06 05:12:44;;;;;;;3.28;0.52;;;13.80;99.90;;;;;;5046249;28;20522;-74
2022/07/06 05:15:10;;;;;;;1.50;0.40;;;13.80;99.90;;;;;;5044447;28;20483;-74
2022/07/06 05:17:35;;;;;;;3.20;0.40;;;13.90;99.90;;;;;;5047547;28;20086;-74
2022/07/06 05:20:01;;;;;;;1.10;0.43;;;13.90;99.90;;;;;;5045282;28;20040;-74
2022/07/06 05:22:27;;;;;;;6.32;0.80;;;14.00;99.90;;;;;;5045357;28;20445;-74
2022/07/06 05:24:53;;;;;;;4.05;0.65;;;14.00;99.90;;;;;;5044912;28;20041;-74
2022/07/06 05:27:19;;;;;;;4.68;0.65;;;14.00;99.90;;;;;;5028110;28;20103;-74
2022/07/06 05:29:44;;;;;;;7.53;0.80;;;14.00;99.90;;;;;;5046063;28;20064;-76
2022/07/06 05:32:10;;;;;;;10.73;2.22;;;14.00;99.90;;;;;;5044578;28;20101;-74
2022/07/06 05:34:37;;;;;;;4.85;0.40;;;14.00;99.90;;;;;;5046252;28;20040;-74
2022/07/06 05:37:03;;;;;;;5.50;0.85;;;14.10;99.90;;;;;;5047252;28;20139;-74
2022/07/06 05:39:29;;;;;;;13.27;2.33;;;14.10;99.90;;;;;;5043655;28;20032;-74
2022/07/06 05:41:54;;;;;;;3.97;1.02;;;14.10;99.90;;;;;;5045373;28;20049;-74
2022/07/06 05:44:20;;;;;;;6.45;1.20;;;14.20;99.90;;;;;;5038962;28;20041;-74
2022/07/06 05:46:46;;;;;;;7.78;0.80;;;14.20;99.90;;;;;;5045294;28;20080;-74
2022/07/06 05:51:55;;;;;;;3.38;0.50;;;14.40;99.90;;;;;;5044557;28;20178;-75
2022/07/06 05:54:21;;;;;;;8.18;1.33;;;14.50;99.90;;;;;;5043988;28;20536;-74
2022/07/06 05:56:47;;;;;;;3.50;1.13;;;14.60;99.90;;;;;;5041313;28;20048;-74
2022/07/06 05:59:12;;;;;;;2.55;0.45;;;14.40;99.90;;;;;;5044475;28;20575;-74
2022/07/06 06:01:38;;;;;;;3.17;0.45;;;14.40;99.90;;;;;;5044564;28;20715;-74
2022/07/06 06:04:04;;;;;;;4.43;0.70;;;14.40;99.90;;;;;;5028807;28;20044;-74
2022/07/06 06:06:31;;;;;;;3.47;0.88;;;14.40;99.90;;;;;;5045572;28;20110;-74
2022/07/06 06:08:56;;;;;;;7.85;0.80;;;14.40;99.90;;;;;;5045108;28;20041;-74
2022/07/06 06:11:22;;;;;;;4.75;0.55;;;14.40;99.90;;;;;;5045785;28;20128;-74
2022/07/06 06:13:48;;;;;;;5.57;1.73;;;14.50;99.90;;;;;;5042747;28;20052;-74
2022/07/06 06:16:15;;;;;;;3.72;0.60;;;14.40;99.90;;;;;;5043623;28;20080;-76
2022/07/06 06:18:41;;;;;;;3.08;0.40;;;14.40;99.90;;;;;;5035596;28;20077;-75
2022/07/06 06:21:07;;;;;;;6.57;0.70;;;14.40;99.90;;;;;;5042272;28;20091;-75
2022/07/06 06:23:32;;;;;;;9.80;0.82;;;14.50;99.90;;;;;;5046109;28;20037;-76
2022/07/06 06:25:58;;;;;;;15.80;1.83;;;14.50;99.90;;;;;;5044647;28;20049;-75
2022/07/06 06:28:23;;;;;;;2.08;0.70;;;14.50;99.90;;;;;;5042528;28;20064;-75
2022/07/06 06:30:49;;;;;;;8.15;1.15;;;14.60;99.90;;;;;;5045357;28;20049;-77
2022/07/06 06:33:17;;;;;;;4.28;1.52;;;14.60;99.90;;;;;;5045723;28;20422;-78
2022/07/06 06:35:46;;;;;;;8.35;0.85;;;14.80;99.90;;;;;;5046288;28;20052;-78
2022/07/06 06:38:11;;;;;;;8.02;2.25;;;14.90;99.90;;;;;;5042953;28;20127;-77
2022/07/06 06:40:37;;;;;;;8.23;1.23;;;15.10;99.90;;;;;;5044122;28;20124;-77
2022/07/06 06:43:03;;;;;;;4.68;0.88;;;15.20;99.90;;;;;;5044544;28;20406;-78
2022/07/06 06:45:28;;;;;;;1.42;0.50;;;15.20;99.90;;;;;;5041537;28;20551;-77
2022/07/06 06:47:54;;;;;;;6.00;0.80;;;15.20;99.90;;;;;;5043470;28;20107;-76
2022/07/06 06:50:20;;;;;;;5.10;0.82;;;15.30;99.90;;;;;;5046164;28;20815;-77
2022/07/06 06:52:46;;;;;;;3.28;0.60;;;15.30;99.90;;;;;;5024015;28;20037;-77
2022/07/06 06:55:12;;;;;;;7.10;1.05;;;15.20;99.90;;;;;;5026335;28;20044;-76
2022/07/06 06:57:37;;;;;;;8.80;0.82;;;15.40;99.90;;;;;;5036924;28;20041;-77
2022/07/06 07:00:05;;;;;;;8.13;0.85;;;15.30;99.90;;;;;;5035974;28;20156;-77
2022/07/06 07:02:30;;;;;;;4.68;0.70;;;15.30;99.90;;;;;;5040911;28;20663;-76
2022/07/06 07:04:56;;;;;;;5.80;0.80;;;15.30;99.90;;;;;;5038059;28;20102;-77
2022/07/06 07:07:22;;;;;;;6.70;0.75;;;15.20;99.90;;;;;;5042390;28;20079;-77
2022/07/06 07:09:47;;;;;;;7.55;0.60;;;15.30;99.90;;;;;;5043859;28;20124;-76
2022/07/06 07:12:14;;;;;;;4.88;0.60;;;15.30;99.90;;;;;;5043194;28;20048;-77
2022/07/06 07:14:40;;;;;;;4.38;1.75;;;15.40;99.90;;;;;;5042318;28;20060;-76
2022/07/06 07:17:06;;;;;;;4.18;0.55;;;15.40;99.90;;;;;;5041406;28;20123;-76
2022/07/06 07:19:32;;;;;;;1.63;0.73;;;15.50;99.90;;;;;;5045564;28;20083;-76
2022/07/06 07:21:57;;;;;;;2.08;1.25;;;15.80;99.90;;;;;;5043132;28;20041;-76
2022/07/06 07:24:23;;;;;;;5.40;0.57;;;16.60;99.90;;;;;;5041422;28;20151;-76
2022/07/06 07:26:49;;;;;;;0.95;0.40;;;16.80;99.90;;;;;;5042451;28;20041;-74
2022/07/06 07:29:14;;;;;;;3.30;0.70;;;16.50;99.90;;;;;;5046494;28;20052;-78
2022/07/06 07:31:40;;;;;;;3.58;0.60;;;17.50;99.90;;;;;;5045906;28;20099;-78
2022/07/06 07:34:05;;;;;;;1.80;0.38;;;18.10;99.90;;;;;;5044006;28;20651;-75
2022/07/06 07:36:31;;;;;;;5.82;1.13;;;18.70;99.90;;;;;;5043723;28;20048;-79
2022/07/06 07:38:57;;;;;;;2.85;0.68;;;19.60;99.90;;;;;;5044630;28;20045;-73
2022/07/06 07:41:22;;;;;;;6.53;0.57;;;19.60;99.90;;;;;;5043444;28;20068;-74
2022/07/06 07:43:48;;;;;;;2.17;0.40;;;19.50;99.90;;;;;;5057801;28;20036;-75
2022/07/06 07:46:14;;;;;;;2.50;0.52;;;19.40;99.90;;;;;;5049502;28;20503;-74
2022/07/06 07:48:39;;;;;;;4.53;1.15;;;19.60;99.90;;;;;;5047762;28;20399;-75
2022/07/06 07:51:05;;;;;;;0.77;0.40;;;19.80;99.90;;;;;;5047543;28;20279;-75
2022/07/06 07:53:31;;;;;;;0.98;0.50;;;19.00;99.90;;;;;;5047897;28;20041;-74
2022/07/06 07:55:56;;;;;;;1.90;0.45;;;18.60;99.90;;;;;;5044499;28;20049;-73
2022/07/06 07:58:22;;;;;;;1.65;0.40;;;18.40;99.90;;;;;;5030639;28;20049;-74
2022/07/06 08:00:47;;;;;;;3.80;0.65;;;18.40;99.90;;;;;;5028585;28;20045;-74
2022/07/06 08:03:13;;;;;;;4.78;0.40;;;18.00;99.90;;;;;;5047137;28;20446;-73
2022/07/06 08:05:39;;;;;;;1.35;1.08;;;17.90;99.90;;;;;;5046666;28;20084;-74
2022/07/06 08:08:05;;;;;;;3.25;0.20;;;17.70;99.90;;;;;;5046127;28;20407;-74
2022/07/06 08:10:30;;;;;;;2.05;0.73;;;17.70;99.90;;;;;;5043722;28;20040;-74
2022/07/06 08:12:56;;;;;;;3.83;0.20;;;17.90;99.90;;;;;;5047526;28;20046;-74
2022/07/06 08:15:22;;;;;;;4.30;0.93;;;18.20;99.90;;;;;;5045825;28;20036;-73
2022/07/06 08:17:48;;;;;;;2.60;0.70;;;18.40;99.90;;;;;;5046221;28;20124;-73
2022/07/06 08:20:13;;;;;;;0.95;0.25;;;18.00;99.90;;;;;;5046547;28;20056;-73
2022/07/06 08:22:39;;;;;;;3.95;0.22;;;17.80;99.90;;;;;;5047724;28;20152;-74
2022/07/06 08:25:05;;;;;;;2.97;0.43;;;17.70;99.90;;;;;;5045697;28;20080;-74
2022/07/06 08:27:31;;;;;;;3.92;1.05;;;17.50;99.90;;;;;;5028890;28;20044;-75
2022/07/06 08:29:57;;;;;;;3.95;0.55;;;17.50;99.90;;;;;;5044249;28;20045;-74
2022/07/06 08:32:22;;;;;;;2.88;0.30;;;18.10;99.90;;;;;;5046618;28;20134;-75
2022/07/06 08:34:48;;;;;;;2.58;0.30;;;18.40;99.90;;;;;;5045667;28;20043;-75
2022/07/06 08:37:14;;;;;;;2.58;0.35;;;18.80;99.90;;;;;;5029860;28;20056;-74
2022/07/06 08:39:39;;;;;;;1.50;0.45;;;18.60;99.90;;;;;;5047635;28;20051;-74
2022/07/06 08:42:07;;;;;;;5.47;1.23;;;18.70;99.90;;;;;;5062533;28;20071;-74
2022/07/06 08:44:36;;;;;;;1.30;0.50;;;19.00;99.90;;;;;;5046045;28;20516;-75
2022/07/06 08:47:04;;;;;;;2.42;0.93;;;18.60;99.90;;;;;;5045305;28;20052;-74
2022/07/06 08:49:32;;;;;;;1.60;0.40;;;18.40;99.90;;;;;;5042385;28;20373;-74
2022/07/06 08:51:57;;;;;;;4.28;0.40;;;18.80;99.90;;;;;;5045315;28;20044;-74
2022/07/06 08:54:24;;;;;;;4.22;0.95;;;18.60;99.90;;;;;;5046626;28;20040;-73
2022/07/06 08:56:50;;;;;;;1.95;0.30;;;18.70;99.90;;;;;;5046915;28;20037;-73
2022/07/06 08:59:16;;;;;;;4.43;0.75;;;18.50;99.90;;;;;;5044890;28;20694;-75
2022/07/06 09:01:44;;;;;;;4.75;0.57;;;18.40;99.90;;;;;;5044776;28;20033;-77
2022/07/06 09:04:11;;;;;;;2.35;0.50;;;18.40;99.90;;;;;;5045033;28;20079;-74
2022/07/06 09:06:40;;;;;;;6.10;0.60;;;18.20;99.90;;;;;;5046325;28;20490;-75
2022/07/06 09:09:07;;;;;;;3.13;0.50;;;18.60;99.90;;;;;;5028993;28;20418;-74
2022/07/06 09:11:33;;;;;;;8.63;1.50;;;19.00;99.90;;;;;;5046935;28;20045;-74
2022/07/06 09:13:59;;;;;;;2.63;0.50;;;18.90;99.90;;;;;;5043857;28;20056;-74
2022/07/06 09:16:29;;;;;;;4.82;0.50;;;19.40;99.90;;;;;;5046455;28;20084;-74
2022/07/06 09:18:55;;;;;;;4.63;0.50;;;19.70;99.90;;;;;;5045572;28;20045;-74
2022/07/06 09:21:26;;;;;;;6.70;0.70;;;19.70;99.90;;;;;;5043422;28;20057;-74
2022/07/06 09:23:59;;;;;;;3.03;0.60;;;19.90;99.90;;;;;;5044823;28;20120;-74
2022/07/06 09:26:26;;;;;;;1.50;0.40;;;19.60;99.90;;;;;;5044993;28;20041;-75
2022/07/06 09:28:54;;;;;;;4.22;0.50;;;19.00;99.90;;;;;;5047402;28;20462;-74
2022/07/06 09:31:20;;;;;;;1.38;0.40;;;19.00;99.90;;;;;;5043500;28;20044;-74
2022/07/06 09:34:07;;;;;;;2.28;0.68;;;18.70;99.90;;;;;;5045634;28;20439;-75
2022/07/06 09:36:42;;;;;;;5.28;0.30;;;18.60;99.90;;;;;;5045842;28;20094;-76
2022/07/06 09:39:23;;;;;;;1.40;0.52;;;18.30;99.90;;;;;;5046485;28;20068;-76
2022/07/06 09:41:59;;;;;;;3.70;0.55;;;18.20;99.90;;;;;;5044783;28;20052;-72
2022/07/06 09:44:27;;;;;;;3.55;0.30;;;18.40;99.90;;;;;;5046404;28;20128;-75
2022/07/06 09:46:56;;;;;;;2.40;0.50;;;18.60;99.90;;;;;;5045651;28;20045;-75
2022/07/06 09:49:22;;;;;;;3.55;0.40;;;18.90;99.90;;;;;;5046521;28;20621;-74
2022/07/06 09:51:50;;;;;;;3.17;0.40;;;18.90;99.90;;;;;;5043918;28;20166;-75
2022/07/06 09:54:16;;;;;;;2.20;0.50;;;18.60;99.90;;;;;;5045391;28;20136;-75
2022/07/06 09:56:47;;;;;;;1.92;0.50;;;18.50;99.90;;;;;;5044719;28;20127;-75
2022/07/06 09:59:14;;;;;;;2.88;0.40;;;18.30;99.90;;;;;;5044524;28;20041;-76
2022/07/06 10:01:41;;;;;;;1.75;0.70;;;18.30;99.90;;;;;;5044160;28;20079;-76
2022/07/06 10:04:09;;;;;;;3.45;0.82;;;18.50;99.90;;;;;;5026607;28;20463;-77
2022/07/06 10:06:36;;;;;;;1.02;0.47;;;18.90;99.90;;;;;;5044154;28;20048;-79
2022/07/06 10:09:06;;;;;;;4.55;0.75;;;19.30;99.90;;;;;;5045060;28;20132;-77
2022/07/06 10:11:34;;;;;;;3.10;0.82;;;19.30;99.90;;;;;;5044617;28;20392;-77
2022/07/06 10:14:03;;;;;;;3.15;1.02;;;19.40;99.90;;;;;;5044614;28;20498;-76
2022/07/06 10:16:29;;;;;;;3.38;0.30;;;19.20;99.90;;;;;;5042723;28;20048;-77
2022/07/06 10:18:55;;;;;;;3.03;0.65;;;18.90;99.90;;;;;;5045596;28;20416;-76
2022/07/06 10:21:24;;;;;;;1.75;0.40;;;18.60;99.90;;;;;;5041391;28;20037;-77
2022/07/06 10:23:50;;;;;;;2.45;0.40;;;18.70;99.90;;;;;;5044999;28;20120;-83
2022/07/06 10:26:18;;;;;;;4.55;0.68;;;19.10;99.90;;;;;;5044411;28;20045;-77
2022/07/06 10:28:46;;;;;;;2.33;0.70;;;19.20;99.90;;;;;;5046167;28;20097;-77
2022/07/06 10:31:17;;;;;;;1.10;0.75;;;18.80;99.90;;;;;;5044903;28;20384;-77
2022/07/06 10:33:44;;;;;;;1.52;0.50;;;19.20;99.90;;;;;;5042795;28;20048;-76
2022/07/06 10:36:11;;;;;;;3.05;0.47;;;19.50;99.90;;;;;;5060127;28;20094;-77
2022/07/06 10:38:37;;;;;;;2.78;0.38;;;19.60;99.90;;;;;;5061697;28;20438;-77
2022/07/06 10:41:07;;;;;;;1.67;0.40;;;19.10;99.90;;;;;;5057820;28;20048;-78
2022/07/06 10:43:44;;;;;;;2.38;0.32;;;19.20;99.90;;;;;;5043253;28;20178;-77
2022/07/06 10:46:11;;;;;;;2.67;0.55;;;19.40;99.90;;;;;;5044725;28;20045;-78
2022/07/06 10:48:45;;;;;;;1.63;0.45;;;19.70;99.90;;;;;;5045245;28;20495;-78
2022/07/06 10:51:26;;;;;;;3.90;0.50;;;20.10;99.90;;;;;;5043149;28;20057;-77
2022/07/06 10:54:01;;;;;;;3.53;1.25;;;20.20;99.90;;;;;;5041831;28;20080;-78
2022/07/06 10:56:37;;;;;;;2.95;0.40;;;19.90;99.90;;;;;;5060426;28;20037;-77
2022/07/06 10:59:11;;;;;;;1.55;0.50;;;19.50;99.90;;;;;;5043666;28;20056;-78
2022/07/06 11:01:37;;;;;;;1.45;0.35;;;19.70;99.90;;;;;;5043963;28;20499;-77
2022/07/06 11:04:03;;;;;;;1.73;0.25;;;20.10;99.90;;;;;;5044369;28;20043;-78
2022/07/06 11:06:32;;;;;;;2.85;0.32;;;20.00;99.90;;;;;;5024684;28;20044;-78
2022/07/06 11:09:09;;;;;;;6.78;1.58;;;20.10;99.90;;;;;;5043669;28;20041;-80
2022/07/06 11:11:35;;;;;;;2.13;0.40;;;20.10;99.90;;;;;;5023947;28;20495;-78
2022/07/06 11:14:17;;;;;;;3.33;0.55;;;19.90;99.90;;;;;;5045076;28;20033;-78
2022/07/06 11:16:49;;;;;;;2.95;0.38;;;20.30;99.90;;;;;;5047704;28;20114;-77
2022/07/06 11:19:17;;;;;;;2.38;0.50;;;20.60;99.90;;;;;;5052747;28;20033;-77
2022/07/06 11:22:06;;;;;;;1.98;0.50;;;20.20;99.90;;;;;;5048345;28;20044;-77
2022/07/06 11:24:34;;;;;;;4.13;1.50;;;20.70;99.90;;;;;;5033388;28;20029;-74
2022/07/06 11:27:00;;;;;;;5.72;0.40;;;21.00;99.90;;;;;;5050556;28;20045;-75
2022/07/06 11:29:28;;;;;;;1.98;1.25;;;20.90;99.90;;;;;;5051020;28;20072;-74
2022/07/06 11:32:00;;;;;;;2.45;0.40;;;20.90;99.90;;;;;;5047343;28;20094;-73
2022/07/06 11:34:31;;;;;;;2.45;0.30;;;20.40;99.90;;;;;;5050491;28;20071;-74
2022/07/06 11:36:58;;;;;;;2.88;0.40;;;20.50;99.90;;;;;;5032943;28;20391;-75
2022/07/06 11:39:28;;;;;;;2.13;0.35;;;20.80;99.90;;;;;;5047451;28;20041;-74
2022/07/06 11:41:55;;;;;;;3.53;0.60;;;20.80;99.90;;;;;;5048538;28;20048;-74
2022/07/06 11:44:22;;;;;;;3.30;0.47;;;20.90;99.90;;;;;;5050534;28;20132;-74
2022/07/06 11:46:48;;;;;;;1.27;0.38;;;21.00;99.90;;;;;;5050470;28;20045;-75
2022/07/06 11:49:14;;;;;;;1.83;0.55;;;20.80;99.90;;;;;;5050607;28;20106;-74
2022/07/06 11:51:41;;;;;;;5.80;1.70;;;20.50;99.90;;;;;;5044542;28;20133;-75
2022/07/06 11:54:17;;;;;;;1.73;0.65;;;20.50;99.90;;;;;;5050309;28;20033;-75
2022/07/06 11:56:58;;;;;;;0.63;0.28;;;20.80;99.90;;;;;;5045592;28;20126;-75
2022/07/06 11:59:28;;;;;;;3.38;0.70;;;21.10;99.90;;;;;;5051545;28;20089;-74
2022/07/06 12:02:03;;;;;;;1.08;0.30;;;20.90;99.90;;;;;;5048117;28;20154;-75
2022/07/06 12:04:31;;;;;;;1.48;0.28;;;21.10;99.90;;;;;;5046782;28;20132;-75
2022/07/06 12:07:04;;;;;;;0.68;0.32;;;21.40;99.90;;;;;;5050483;28;20049;-74
2022/07/06 12:09:31;;;;;;;1.40;0.25;;;20.90;99.90;;;;;;5050600;28;20045;-75
2022/07/06 12:11:57;;;;;;;3.38;0.77;;;20.90;99.90;;;;;;5048837;28;20044;-75
2022/07/06 12:14:22;;;;;;;1.85;0.57;;;21.10;99.90;;;;;;5049571;28;20045;-75
2022/07/06 12:16:50;;;;;;;2.80;0.30;;;21.10;99.90;;;;;;5050354;28;20165;-75
2022/07/06 12:19:16;;;;;;;2.53;0.82;;;21.00;99.90;;;;;;5050672;28;20437;-74
2022/07/06 12:21:48;;;;;;;4.65;0.52;;;21.00;99.90;;;;;;5066265;28;20056;-75
2022/07/06 12:24:19;;;;;;;1.42;0.47;;;21.30;99.90;;;;;;5050704;28;20074;-75
2022/07/06 12:26:45;;;;;;;0.77;0.40;;;21.10;99.90;;;;;;5049839;28;20099;-76
2022/07/06 12:29:13;;;;;;;1.77;0.35;;;21.00;99.90;;;;;;5047400;28;20033;-76
2022/07/06 12:31:40;;;;;;;3.70;1.08;;;20.90;99.90;;;;;;5045344;28;20064;-77
2022/07/06 12:34:31;;;;;;;1.83;0.32;;;21.20;99.90;;;;;;5047209;28;20047;-75
2022/07/06 12:36:59;;;;;;;3.35;0.50;;;21.50;99.90;;;;;;5045857;28;20044;-76
2022/07/06 12:39:27;;;;;;;0.88;0.47;;;21.40;99.90;;;;;;5048778;28;20034;-75
2022/07/06 12:42:07;;;;;;;1.05;0.32;;;21.30;99.90;;;;;;5046400;28;20080;-76
2022/07/06 12:44:41;;;;;;;1.63;0.90;;;21.00;99.90;;;;;;5030004;28;20041;-75
2022/07/06 12:47:08;;;;;;;3.50;1.15;;;20.90;99.90;;;;;;5043600;28;20064;-75
2022/07/06 12:49:36;;;;;;;5.68;0.30;;;20.50;99.90;;;;;;5046163;28;20083;-75